Time;durP1;ratioP1;P1;durP2;ratioP2;P2;SDS_P1;SDS_P2;PMS_P1;PMS_P2;Temp;Humidity;BMP_temperature;BMP_pressure;BME280_temperature;BME280_humidity;BME280_pressure;Samples;Min_cycle;Max_cycle;Signal;HPM_P1;HPM_P2
2022/12/27 11:19:26;;;;;;;;;8.20;7.00;;;;;32.66;21.02;102346.28;5064812;27;45437;-65
2022/12/27 11:21:53;;;;;;;;;7.00;5.80;;;;;28.79;23.68;102344.13;5069348;28;45561;-64
2022/12/27 11:24:21;;;;;;;;;10.20;7.80;;;;;25.84;26.87;102345.84;5056848;28;45413;-64
2022/12/27 11:26:57;;;;;;;;;8.00;7.25;;;;;23.53;30.09;102320.91;5068228;28;45806;-63
2022/12/27 11:29:26;;;;;;;;;7.50;5.00;;;;;21.71;31.41;102328.63;5055434;28;46251;-66
2022/12/27 11:31:53;;;;;;;;;6.25;6.00;;;;;20.51;33.71;102327.91;5067779;28;45350;-66
2022/12/27 11:34:35;;;;;;;;;9.00;7.75;;;;;19.26;35.02;102313.34;5070217;28;45431;-65
2022/12/27 11:37:06;;;;;;;;;6.33;6.33;;;;;18.38;35.95;102328.09;5074064;28;45516;-65
2022/12/27 11:39:50;;;;;;;;;8.67;6.67;;;;;17.41;37.25;102309.81;5073207;28;46205;-66
2022/12/27 11:42:22;;;;;;;;;9.33;7.33;;;;;16.36;38.99;102311.47;5069083;28;45645;-65
2022/12/27 11:45:02;;;;;;;;;6.33;6.33;;;;;15.94;40.32;102297.19;5070157;28;45616;-66
2022/12/27 11:47:38;;;;;;;;;10.00;7.33;;;;;15.24;41.56;102309.06;5073699;27;45540;-64
2022/12/27 11:50:28;;;;;;;;;9.67;8.00;;;;;14.60;43.07;102314.63;5060100;28;45470;-65
2022/12/27 11:53:22;;;;;;;;;8.00;8.00;;;;;14.20;44.78;102311.50;5069299;28;45511;-67
2022/12/27 11:55:50;;;;;;;;;13.00;8.00;;;;;13.78;45.49;102309.19;5088824;27;45441;-66
2022/12/27 11:58:29;;;;;;;;;13.33;9.67;;;;;13.35;45.77;102308.56;5073700;28;45520;-65
2022/12/27 12:01:36;;;;;;;;;11.33;9.67;;;;;13.04;47.96;102301.91;5071782;28;45570;-64
2022/12/27 12:04:20;;;;;;;;;14.00;10.33;;;;;12.58;48.47;102315.13;5068928;28;45472;-64
2022/12/27 12:07:20;;;;;;;;;9.33;8.00;;;;;12.25;49.52;102317.97;5069455;28;45500;-66
2022/12/27 12:10:15;;;;;;;;;8.67;8.67;;;;;12.00;51.35;102312.19;5074349;27;45338;-65
2022/12/27 12:12:52;;;;;;;;;13.67;9.00;;;;;11.92;51.74;102319.03;5070987;28;47091;-65
2022/12/27 12:15:45;;;;;;;;;12.00;8.00;;;;;11.81;50.92;102326.63;5069784;28;45785;-67
2022/12/27 12:18:33;;;;;;;;;6.00;5.00;;;;;11.64;50.91;102315.75;5084768;27;45517;-65
2022/12/27 12:21:24;;;;;;;;;10.33;4.00;;;;;11.55;51.30;102322.50;5072753;27;45605;-66
2022/12/27 12:24:18;;;;;;;;;5.00;3.67;;;;;11.43;51.62;102310.88;5068761;28;45506;-66
2022/12/27 12:26:52;;;;;;;;;6.33;4.00;;;;;11.41;53.17;102320.47;5084808;27;46102;-64
2022/12/27 12:29:32;;;;;;;;;4.00;4.00;;;;;11.51;52.81;102308.44;5061631;28;45652;-63
2022/12/27 12:32:06;;;;;;;;;5.00;4.00;;;;;11.49;51.92;102301.41;5056941;28;45728;-65
2022/12/27 12:34:35;;;;;;;;;7.00;4.00;;;;;11.58;52.37;102292.00;5059250;28;46468;-64
2022/12/27 12:37:03;;;;;;;;;4.00;3.00;;;;;11.60;52.05;102286.75;5059648;28;45473;-64
2022/12/27 12:39:54;;;;;;;;;7.33;6.67;;;;;11.48;51.99;102291.75;5054341;28;45457;-65
2022/12/27 12:42:34;;;;;;;;;7.33;5.33;;;;;11.35;52.69;102275.72;5057408;28;45527;-65
2022/12/27 12:45:28;;;;;;;;;3.00;3.00;;;;;11.29;52.84;102267.69;5060078;28;45534;-65
2022/12/27 12:48:18;;;;;;;;;12.67;4.00;;;;;11.28;54.86;102265.94;5058448;28;45369;-66
2022/12/27 12:51:19;;;;;;;;;3.00;3.00;;;;;11.29;52.84;102243.19;5056924;28;45600;-64
2022/12/27 12:53:49;;;;;;;;;7.33;4.33;;;;;11.41;52.32;102261.84;5055850;28;45433;-66
2022/12/27 12:56:30;;;;;;;;;3.00;3.00;;;;;11.38;52.35;102251.28;5054198;28;45608;-64
2022/12/27 12:59:25;;;;;;;;;4.00;4.00;;;;;11.25;52.69;102239.66;5047724;28;45475;-65
2022/12/27 13:02:13;;;;;;;;;4.67;2.00;;;;;11.33;52.61;102248.56;5040324;27;45560;-65
2022/12/27 13:04:45;;;;;;;;;7.67;4.00;;;;;11.28;52.21;102239.69;5046194;28;45475;-65
2022/12/27 13:07:49;;;;;;;;;3.00;3.00;;;;;11.11;52.14;102243.69;5039578;28;46430;-66
2022/12/27 13:10:54;;;;;;;;;4.00;4.00;;;;;11.18;52.69;102243.84;5038899;28;45492;-67
2022/12/27 13:13:53;;;;;;;;;5.00;3.67;;;;;11.15;52.46;102241.16;5054139;28;45337;-66
2022/12/27 13:16:51;;;;;;;;;4.00;2.00;;;;;11.16;52.60;102242.03;5070836;27;45464;-65
2022/12/27 13:19:54;;;;;;;;;3.33;3.00;;;;;11.17;52.44;102228.06;5053674;28;45732;-66
2022/12/27 13:22:47;;;;;;;;;3.00;3.00;;;;;11.08;52.43;102230.47;5069333;27;45547;-65
2022/12/27 13:25:40;;;;;;;;;4.00;2.00;;;;;10.92;53.16;102218.75;5049936;28;45339;-66
2022/12/27 13:28:31;;;;;;;;;2.00;2.00;;;;;10.93;53.11;102231.88;5054980;28;45390;-66
2022/12/27 13:31:34;;;;;;;;;2.33;2.33;;;;;10.91;53.70;102230.94;5041145;28;45524;-65
2022/12/27 13:34:19;;;;;;;;;3.67;2.00;;;;;10.93;54.00;102208.28;5039314;28;45440;-65
2022/12/27 13:37:01;;;;;;;;;2.00;2.00;;;;;10.95;53.70;102205.72;5042554;28;45401;-66
2022/12/27 13:39:46;;;;;;;;;4.50;4.25;;;;;10.94;55.25;102207.44;5054776;28;45272;-65
2022/12/27 13:42:17;;;;;;;;;3.67;3.00;;;;;10.88;53.79;102204.66;5054899;28;46006;-65
2022/12/27 13:45:08;;;;;;;;;4.00;2.00;;;;;10.92;54.21;102208.25;5057970;28;45874;-65
2022/12/27 13:47:54;;;;;;;;;3.00;2.00;;;;;10.83;54.05;102191.44;5054110;28;45550;-65
2022/12/27 13:50:44;;;;;;;;;4.00;2.00;;;;;10.86;53.81;102193.25;5042397;28;45492;-65
2022/12/27 13:53:35;;;;;;;;;5.00;3.00;;;;;10.85;53.82;102188.00;5053748;28;46320;-66
2022/12/27 13:56:12;;;;;;;;;4.00;2.50;;;;;10.90;54.01;102189.88;5052463;28;45520;-66
2022/12/27 13:59:11;;;;;;;;;3.50;2.00;;;;;10.96;53.96;102186.50;5052352;28;45541;-66
2022/12/27 14:01:59;;;;;;;;;2.50;2.50;;;;;11.00;53.90;102186.59;5052090;28;45864;-66
2022/12/27 14:04:42;;;;;;;;;3.00;3.00;;;;;10.97;53.71;102172.56;5057494;28;45736;-65
2022/12/27 14:07:17;;;;;;;;;1.67;1.33;;;;;11.01;53.71;102177.91;5044423;28;45581;-65
2022/12/27 14:09:52;;;;;;;;;1.00;1.00;;;;;11.03;53.52;102177.91;5055907;28;45508;-66
2022/12/27 14:12:56;;;;;;;;;2.00;2.00;;;;;10.95;54.02;102169.88;5056442;28;45373;-65
2022/12/27 14:15:51;;;;;;;;;3.00;2.00;;;;;10.89;53.95;102167.13;5052519;28;47676;-65
2022/12/27 14:18:50;;;;;;;;;2.00;2.00;;;;;10.84;54.74;102173.97;5060201;28;45490;-66
2022/12/27 14:21:42;;;;;;;;;5.00;4.25;;;;;10.86;55.03;102167.03;5053828;28;45637;-66
2022/12/27 14:24:44;;;;;;;;;4.00;3.00;;;;;10.83;54.97;102164.34;5041676;28;45337;-66
2022/12/27 14:27:13;;;;;;;;;8.33;3.00;;;;;10.75;55.14;102158.94;5035544;28;46452;-66
2022/12/27 14:29:44;;;;;;;;;2.33;1.67;;;;;10.74;55.67;102158.91;5052916;28;46653;-66
2022/12/27 14:32:38;;;;;;;;;6.33;2.33;;;;;10.65;56.20;102156.94;5072836;27;45370;-66
2022/12/27 14:35:09;;;;;;;;;2.00;1.00;;;;;10.56;56.39;102159.34;5040877;28;45940;-65
2022/12/27 14:37:54;;;;;;;;;3.50;2.00;;;;;10.45;56.97;102159.06;5053069;28;46254;-66
2022/12/27 14:40:28;;;;;;;;;5.25;3.00;;;;;10.37;57.62;102158.88;5041629;28;45753;-68
2022/12/27 14:43:31;;;;;;;;;5.00;2.00;;;;;10.40;57.81;102156.31;5055490;28;45456;-66
2022/12/27 14:46:35;;;;;;;;;3.00;2.25;;;;;10.39;58.10;102162.44;5040362;28;45292;-66
2022/12/27 14:49:31;;;;;;;;;3.00;3.00;;;;;10.37;58.29;102147.53;5036821;28;46537;-65
2022/12/27 14:52:10;;;;;;;;;4.25;3.00;;;;;10.27;58.64;102141.09;5034731;28;45491;-64
2022/12/27 14:55:12;;;;;;;;;4.25;2.00;;;;;10.30;58.77;102141.25;5039999;28;45896;-65
2022/12/27 14:57:56;;;;;;;;;9.50;5.75;;;;;10.30;59.08;102135.13;5037830;28;45324;-66
2022/12/27 15:00:28;;;;;;;;;4.25;4.00;;;;;10.29;58.76;102135.94;5035909;28;45786;-67
2022/12/27 15:03:12;;;;;;;;;6.25;3.50;;;;;10.26;58.98;102134.09;5041712;28;45466;-65
2022/12/27 15:05:44;;;;;;;;;3.25;3.00;;;;;10.23;59.67;102131.41;5042818;28;45444;-64
2022/12/27 15:08:34;;;;;;;;;4.00;2.00;;;;;10.17;60.32;102132.13;5055478;28;45501;-67
2022/12/27 15:11:25;;;;;;;;;5.00;3.00;;;;;10.09;61.23;102130.19;5051162;28;45715;-64
2022/12/27 15:14:21;;;;;;;;;4.75;3.25;;;;;10.03;61.27;102117.78;5045459;28;45552;-65
2022/12/27 15:16:55;;;;;;;;;4.00;4.00;;;;;10.03;62.05;102124.75;5047283;28;45536;-66
2022/12/27 15:19:27;;;;;;;;;5.00;3.00;;;;;10.04;62.11;102121.31;5072946;28;45879;-66
2022/12/27 15:22:08;;;;;;;;;4.00;4.00;;;;;9.99;62.06;102121.19;5065853;28;47645;-67
2022/12/27 15:25:05;;;;;;;;;4.50;4.25;;;;;9.91;62.93;102118.34;5076784;27;45469;-66
2022/12/27 15:27:43;;;;;;;;;6.50;5.25;;;;;9.90;62.45;102119.22;5077699;28;45285;-66
2022/12/27 15:30:46;;;;;;;;;5.50;4.00;;;;;9.91;62.62;102122.72;5074925;27;45434;-66
2022/12/27 15:33:36;;;;;;;;;5.00;4.25;;;;;9.90;62.85;102113.09;5063816;27;46069;-65
2022/12/27 15:36:03;;;;;;;;;4.25;4.00;;;;;9.85;62.85;102117.31;5074498;28;45541;-66
2022/12/27 15:38:39;;;;;;;;;9.75;3.00;;;;;9.80;63.08;102119.81;5073314;28;45474;-67
2022/12/27 15:41:08;;;;;;;;;5.00;5.00;;;;;9.79;63.46;102130.22;5076247;28;45292;-65
2022/12/27 15:43:45;;;;;;;;;8.50;5.00;;;;;9.80;63.60;102125.06;5054150;28;45765;-65
2022/12/27 15:46:30;;;;;;;;;6.75;5.75;;;;;9.77;64.03;102124.94;5044426;28;46281;-65
2022/12/27 15:49:13;;;;;;;;;6.00;5.25;;;;;9.78;63.95;102124.13;5076493;27;45378;-65
2022/12/27 15:51:54;;;;;;;;;7.25;6.75;;;;;9.77;64.39;102119.72;5076173;28;45394;-65
2022/12/27 15:54:37;;;;;;;;;7.00;6.25;;;;;9.79;65.07;102130.22;5077215;28;46210;-64
2022/12/27 15:57:15;;;;;;;;;9.00;6.25;;;;;9.79;65.12;102131.09;5059270;28;45810;-68
2022/12/27 15:59:46;;;;;;;;;10.25;7.75;;;;;9.81;65.07;102133.78;5071857;27;45486;-65
2022/12/27 16:02:26;;;;;;;;;7.25;6.50;;;;;9.79;65.75;102130.22;5057113;28;45504;-66
2022/12/27 16:05:09;;;;;;;;;7.50;5.00;;;;;9.77;65.77;102124.94;5074115;27;46576;-65
2022/12/27 16:07:37;;;;;;;;;12.25;8.50;;;;;9.74;66.16;102117.91;5051761;28;45469;-65
2022/12/27 16:10:34;;;;;;;;;7.75;6.50;;;;;9.76;65.85;102117.94;5073020;27;45430;-65
2022/12/27 16:13:08;;;;;;;;;7.00;6.50;;;;;9.71;66.32;102117.81;5069694;28;45368;-65
2022/12/27 16:15:34;;;;;;;;;9.25;7.50;;;;;9.67;66.32;102117.69;5059011;28;46167;-65
2022/12/27 16:18:01;;;;;;;;;10.00;8.25;;;;;9.59;66.99;102112.25;5069067;27;45342;-64
2022/12/27 16:20:28;;;;;;;;;9.50;6.25;;;;;9.57;66.97;102119.16;5060034;28;45256;-65
2022/12/27 16:23:09;;;;;;;;;8.00;7.00;;;;;9.54;67.51;102103.41;5072137;28;45395;-66
2022/12/27 16:25:42;;;;;;;;;7.75;7.50;;;;;9.48;67.35;102106.72;5064862;28;45487;-66
2022/12/27 16:28:23;;;;;;;;;12.25;10.00;;;;;9.53;68.84;102114.69;5063859;28;45572;-65
2022/12/27 16:30:55;;;;;;;;;13.25;12.25;;;;;9.47;69.72;102111.91;5064971;28;45511;-65
2022/12/27 16:33:32;;;;;;;;;15.00;11.25;;;;;9.53;69.27;102114.69;5063795;27;45835;-65
2022/12/27 16:36:19;;;;;;;;;14.00;10.50;;;;;9.47;69.86;102110.19;5046121;28;47152;-66
2022/12/27 16:38:45;;;;;;;;;16.50;12.75;;;;;9.43;69.79;102116.16;5061427;28;45362;-65
2022/12/27 16:41:27;;;;;;;;;7.00;5.50;;;;;9.40;68.62;102120.44;5072714;28;46662;-67
2022/12/27 16:44:01;;;;;;;;;13.75;11.00;;;;;9.32;68.78;102115.88;5068675;28;45510;-67
2022/12/27 16:46:42;;;;;;;;;12.75;10.00;;;;;9.26;69.09;102123.50;5071853;28;46112;-65
2022/12/27 16:49:42;;;;;;;;;12.00;11.00;;;;;9.04;69.71;102108.94;5066914;27;45315;-66
2022/12/27 16:52:50;;;;;;;;;13.00;7.25;;;;;9.13;69.34;102110.91;5054561;28;45449;-65
2022/12/27 16:55:42;;;;;;;;;13.00;8.25;;;;;9.09;69.64;102116.91;5043554;28;45447;-65
2022/12/27 16:58:17;;;;;;;;;15.50;14.00;;;;;9.02;69.97;102114.94;5073232;27;46731;-63
2022/12/27 17:00:46;;;;;;;;;18.00;11.00;;;;;8.92;69.77;102103.31;5068048;28;45566;-64
2022/12/27 17:03:20;;;;;;;;;14.75;12.25;;;;;9.00;70.02;102120.13;5047857;28;45323;-64
2022/12/27 17:05:48;;;;;;;;;21.00;17.00;;;;;8.91;70.25;102128.56;5065378;28;45338;-63
2022/12/27 17:08:21;;;;;;;;;17.75;16.75;;;;;8.84;70.56;102118.75;5059871;28;45505;-63
2022/12/27 17:10:49;;;;;;;;;14.75;14.00;;;;;8.83;70.71;102116.09;5045347;28;45648;-63
2022/12/27 17:13:45;;;;;;;;;20.00;15.25;;;;;8.79;71.11;102114.22;5069852;28;45516;-64
2022/12/27 17:16:10;;;;;;;;;21.00;18.25;;;;;8.73;71.69;102108.78;5070233;28;45403;-63
2022/12/27 17:18:46;;;;;;;;;31.50;24.25;;;;;8.66;71.67;102100.78;5071356;27;46094;-64
2022/12/27 17:21:39;;;;;;;;;32.75;28.00;;;;;8.62;72.31;102103.25;5068874;28;45513;-64
2022/12/27 17:24:06;;;;;;;;;39.50;34.25;;;;;8.59;71.90;102091.00;5048010;28;45791;-63
2022/12/27 17:26:40;;;;;;;;;35.75;29.25;;;;;8.55;72.18;102093.44;5073865;27;45908;-65
2022/12/27 17:29:29;;;;;;;;;39.25;30.50;;;;;8.41;72.11;102075.59;5065892;28;46078;-63
2022/12/27 17:32:33;;;;;;;;;188.50;156.75;;;;;8.47;73.44;102088.88;5070949;28;45493;-62
2022/12/27 17:35:10;;;;;;;;;53.25;40.25;;;;;8.49;73.03;102087.19;5010119;28;45321;-63
2022/12/27 17:38:08;;;;;;;;;56.00;42.25;;;;;8.43;73.08;102087.00;5009717;28;45548;-65
2022/12/27 17:40:51;;;;;;;;;40.75;32.00;;;;;8.35;73.42;102072.78;5065626;27;46812;-64
2022/12/27 17:47:02;;;;;;;;;39.25;31.25;;;;;8.40;72.93;102065.09;4993035;28;45616;-64
2022/12/27 17:49:30;;;;;;;;;33.50;30.00;;;;;8.32;73.30;102048.28;5072912;27;45500;-63
2022/12/27 18:00:35;;;;;;;;;32.50;26.75;;;;;8.15;74.18;102039.91;5074309;28;45346;-64
2022/12/27 18:03:07;;;;;;;;;32.00;24.00;;;;;8.16;74.19;102039.97;5072053;28;46464;-65
2022/12/27 18:05:38;;;;;;;;;31.75;28.00;;;;;8.13;74.69;102038.97;5057693;28;45504;-65
2022/12/27 18:08:32;;;;;;;;;32.50;27.25;;;;;8.05;75.63;102046.53;5074195;28;45584;-64
2022/12/27 18:11:00;;;;;;;;;26.50;19.75;;;;;7.95;75.39;102037.53;5078277;28;45473;-64
2022/12/27 18:13:30;;;;;;;;;59.25;45.00;;;;;8.14;75.87;102051.16;5068869;28;45620;-64
2022/12/27 18:15:56;;;;;;;;;72.25;55.75;;;;;8.29;77.77;102046.47;5068619;28;45488;-63
2022/12/27 18:18:29;;;;;;;;;52.00;42.50;;;;;8.27;75.30;102014.19;5056892;28;45448;-64
2022/12/27 18:20:58;;;;;;;;;62.25;47.75;;;;;8.50;76.17;102035.84;5074103;27;45362;-64
2022/12/27 18:23:25;;;;;;;;;49.25;40.00;;;;;8.57;74.38;102032.59;5073553;27;46081;-64
2022/12/27 18:25:54;;;;;;;;;24.50;19.50;;;;;8.52;73.99;102030.66;5055457;28;45627;-64
2022/12/27 18:28:24;;;;;;;;;25.00;17.75;;;;;8.39;74.08;102016.31;5074930;27;45362;-65
2022/12/27 18:31:03;;;;;;;;;25.00;21.00;;;;;8.29;74.22;102012.53;5078566;27;45575;-65
2022/12/27 18:33:41;;;;;;;;;24.75;21.25;;;;;8.32;74.35;102025.66;5077837;28;46703;-65
2022/12/27 18:36:12;;;;;;;;;20.00;18.50;;;;;8.26;74.86;102020.28;5076318;28;45491;-64
2022/12/27 18:38:44;;;;;;;;;22.25;17.00;;;;;8.25;74.27;102013.25;5059023;28;45424;-66
2022/12/27 18:41:19;;;;;;;;;21.25;17.75;;;;;8.20;74.70;102012.22;5072866;27;45669;-65
2022/12/27 18:43:49;;;;;;;;;23.25;20.50;;;;;8.18;74.80;101995.63;5059341;28;46673;-72
2022/12/27 18:46:22;;;;;;;;;17.75;17.75;;;;;8.16;74.60;102006.03;5074114;28;45548;-66
2022/12/27 18:48:49;;;;;;;;;20.50;19.75;;;;;8.15;74.74;101993.81;5049838;28;45624;-67
2022/12/27 18:51:14;;;;;;;;;15.75;13.50;;;;;8.13;75.16;102002.44;5074780;27;45465;-66
2022/12/27 18:53:42;;;;;;;;;20.50;15.50;;;;;8.13;75.13;101999.81;5075340;28;46256;-65
2022/12/27 18:56:14;;;;;;;;;20.00;14.75;;;;;8.18;75.36;101995.63;5073035;28;45326;-66
2022/12/27 18:59:00;;;;;;;;;18.00;17.50;;;;;8.18;75.68;101988.69;5072877;27;45386;-65
2022/12/27 19:01:39;;;;;;;;;35.50;28.75;;;;;8.33;76.09;101998.75;5052027;27;45649;-66
2022/12/27 19:04:15;;;;;;;;;25.75;21.25;;;;;8.52;75.56;101994.09;5062962;28;46586;-65
2022/12/27 19:06:59;;;;;;;;;24.50;17.25;;;;;8.52;74.45;101988.88;5052286;28;45375;-65
2022/12/27 19:09:33;;;;;;;;;28.00;23.00;;;;;8.56;74.63;101986.41;5045721;28;45485;-67
2022/12/27 19:12:07;;;;;;;;;24.25;19.50;;;;;8.55;74.66;101991.59;5063859;27;45508;-67
2022/12/27 19:14:44;;;;;;;;;20.75;17.75;;;;;8.47;74.80;101981.81;5071687;28;45441;-63
2022/12/27 19:17:29;;;;;;;;;15.33;15.00;;;;;8.48;74.52;101982.69;5072525;28;45607;-64
2022/12/27 19:19:59;;;;;;;;;22.00;16.00;;;;;8.48;75.06;101980.97;5074590;28;45421;-64
2022/12/27 19:22:39;;;;;;;;;21.25;16.75;;;;;8.46;75.13;101980.03;5077003;28;45384;-66
2022/12/27 19:25:22;;;;;;;;;19.75;16.50;;;;;8.45;75.50;101975.66;5074377;28;45535;-65
2022/12/27 19:28:04;;;;;;;;;17.50;17.50;;;;;8.46;75.30;101972.19;5072650;28;45454;-63
2022/12/27 19:30:31;;;;;;;;;14.00;12.00;;;;;8.46;75.42;101964.34;5055664;28;45535;-65
2022/12/27 19:32:58;;;;;;;;;15.00;13.25;;;;;8.46;75.18;101960.88;5056190;28;45348;-66
2022/12/27 19:35:23;;;;;;;;;15.75;14.50;;;;;8.45;75.43;101959.09;5060917;28;45558;-66
2022/12/27 19:37:49;;;;;;;;;16.50;15.50;;;;;8.45;75.27;101960.00;5054888;28;45409;-65
2022/12/27 19:40:15;;;;;;;;;15.00;14.50;;;;;8.50;75.56;101965.34;5060443;28;45488;-65
2022/12/27 19:42:42;;;;;;;;;14.75;14.75;;;;;8.46;75.79;101955.66;5080700;27;45805;-66
2022/12/27 19:45:14;;;;;;;;;16.25;16.00;;;;;8.38;75.86;101944.94;5080509;28;46065;-66
2022/12/27 19:47:39;;;;;;;;;18.25;16.00;;;;;8.45;75.99;101962.59;5078353;28;45500;-65
2022/12/27 19:50:05;;;;;;;;;14.25;14.00;;;;;8.44;76.09;101967.75;5057654;28;45433;-64
2022/12/27 19:52:32;;;;;;;;;14.75;14.25;;;;;8.53;75.93;101969.78;5076572;28;45432;-66
2022/12/27 19:55:05;;;;;;;;;14.75;14.50;;;;;8.50;76.19;101965.34;5074675;27;47123;-65
2022/12/27 19:57:31;;;;;;;;;20.75;18.00;;;;;8.44;76.31;101958.19;5079057;27;45667;-64
2022/12/27 19:59:56;;;;;;;;;17.25;16.25;;;;;8.46;76.16;101948.69;5078433;28;45410;-66
2022/12/27 20:02:22;;;;;;;;;17.50;14.00;;;;;8.47;76.44;101945.25;5076078;28;45629;-65
2022/12/27 20:04:48;;;;;;;;;20.50;15.00;;;;;8.45;77.00;101936.50;5074432;27;46854;-66
2022/12/27 20:07:21;;;;;;;;;13.50;13.50;;;;;8.42;76.83;101931.19;5053857;28;45503;-65
2022/12/27 20:09:47;;;;;;;;;16.50;14.50;;;;;8.44;77.30;101934.69;5074152;28;45459;-65
2022/12/27 20:12:12;;;;;;;;;13.75;11.25;;;;;8.47;77.17;101926.06;5076885;28;45422;-64
2022/12/27 20:14:38;;;;;;;;;16.25;16.00;;;;;8.48;77.20;101923.50;5076182;28;45429;-65
2022/12/27 20:17:04;;;;;;;;;14.75;13.25;;;;;8.55;76.88;101935.03;5059669;28;45362;-65
2022/12/27 20:19:29;;;;;;;;;11.75;11.75;;;;;8.58;77.13;101940.34;5057845;28;45565;-65
2022/12/27 20:21:54;;;;;;;;;14.50;13.75;;;;;8.59;77.09;101943.81;5076518;28;45529;-68
2022/12/27 20:24:20;;;;;;;;;16.00;11.50;;;;;8.55;76.97;101950.69;5076577;27;46052;-68
2022/12/27 20:26:46;;;;;;;;;17.00;13.50;;;;;8.55;77.18;101934.16;5080501;27;45345;-67
2022/12/27 20:29:13;;;;;;;;;9.75;9.75;;;;;8.53;77.02;101936.72;5062289;28;45413;-68
2022/12/27 20:31:40;;;;;;;;;12.00;12.00;;;;;8.57;77.25;101925.53;5086950;27;45484;-67
2022/12/27 20:34:09;;;;;;;;;17.75;15.25;;;;;8.63;76.86;101923.06;5078699;27;45573;-67
2022/12/27 20:36:35;;;;;;;;;14.75;11.75;;;;;8.66;77.57;101919.66;5079634;28;45347;-70
2022/12/27 20:39:01;;;;;;;;;14.25;12.50;;;;;8.66;77.10;101917.03;5058242;28;45471;-69
2022/12/27 20:41:28;;;;;;;;;19.00;13.75;;;;;8.72;77.09;101913.75;5055559;28;45663;-66
2022/12/27 20:43:56;;;;;;;;;14.25;12.75;;;;;8.60;77.55;101894.25;5059150;28;45551;-65
2022/12/27 20:46:21;;;;;;;;;17.00;14.25;;;;;8.68;77.42;101913.66;5074525;27;45655;-68
2022/12/27 20:48:47;;;;;;;;;14.50;12.75;;;;;8.63;77.21;101899.56;5074170;28;45469;-68
2022/12/27 20:51:20;;;;;;;;;15.25;14.75;;;;;8.67;77.08;101903.16;5053766;28;45863;-67
2022/12/27 20:53:49;;;;;;;;;15.00;13.50;;;;;8.73;77.45;101910.28;5077936;28;45434;-68
2022/12/27 20:56:16;;;;;;;;;14.75;12.50;;;;;8.73;77.76;101895.47;5072028;28;45529;-67
2022/12/27 20:58:42;;;;;;;;;17.25;14.00;;;;;8.74;77.51;101897.28;5064458;28;45409;-67
2022/12/27 21:01:10;;;;;;;;;19.00;14.00;;;;;8.76;77.72;101886.88;5071935;28;45434;-68
2022/12/27 21:03:37;;;;;;;;;11.50;10.25;;;;;8.75;77.77;101891.19;5072810;27;45409;-67
2022/12/27 21:06:17;;;;;;;;;14.50;13.25;;;;;8.79;77.92;101877.38;5072282;28;45343;-66
2022/12/27 21:08:44;;;;;;;;;16.25;13.75;;;;;8.82;77.85;101876.56;5069524;28;45581;-66
2022/12/27 21:11:11;;;;;;;;;21.75;14.75;;;;;8.81;77.67;101869.59;5074180;28;45495;-69
2022/12/27 21:13:38;;;;;;;;;18.25;16.25;;;;;8.88;77.95;101888.09;5072928;28;46426;-70
2022/12/27 21:16:05;;;;;;;;;11.50;10.50;;;;;8.90;78.10;101875.97;5051264;28;45488;-67
2022/12/27 21:18:32;;;;;;;;;14.00;11.75;;;;;8.95;78.30;101878.69;5045306;28;45503;-66
2022/12/27 21:21:03;;;;;;;;;15.00;14.00;;;;;9.02;77.47;101874.53;5043126;28;45309;-67
2022/12/27 21:23:36;;;;;;;;;15.00;14.00;;;;;9.06;77.80;101871.13;5068290;28;45450;-68
2022/12/27 21:26:14;;;;;;;;;13.25;11.50;;;;;9.07;77.79;101865.06;5044657;28;45528;-67
2022/12/27 21:28:40;;;;;;;;;9.75;8.50;;;;;9.03;78.97;101866.69;5041033;28;45587;-67
2022/12/27 21:31:06;;;;;;;;;12.50;11.50;;;;;9.01;78.83;101863.16;5045574;28;45550;-69
2022/12/27 21:33:34;;;;;;;;;19.75;16.00;;;;;9.04;79.68;101868.50;5065912;28;45488;-66
2022/12/27 21:36:06;;;;;;;;;14.50;10.75;;;;;9.03;78.93;101864.09;5070109;28;45583;-65
2022/12/27 21:38:32;;;;;;;;;12.75;12.75;;;;;8.99;79.11;101859.63;5070325;28;45720;-67
2022/12/27 21:41:01;;;;;;;;;8.50;7.75;;;;;9.05;78.87;101856.28;5069572;28;45465;-65
2022/12/27 21:43:28;;;;;;;;;11.50;9.25;;;;;9.08;79.08;101857.25;5074661;28;45980;-65
2022/12/27 21:45:54;;;;;;;;;9.00;9.00;;;;;9.09;79.13;101859.03;5075172;28;45425;-66
2022/12/27 21:48:20;;;;;;;;;7.25;3.25;;;;;9.10;79.01;101852.94;5077423;27;45509;-65
2022/12/27 21:50:46;;;;;;;;;13.00;9.75;;;;;9.06;79.31;101835.44;5074345;27;45548;-65
2022/12/27 21:53:16;;;;;;;;;13.50;9.25;;;;;9.11;79.14;101833.81;5026037;28;46831;-68
2022/12/27 21:55:42;;;;;;;;;7.25;7.25;;;;;9.17;78.81;101837.44;5067517;28;45475;-70
2022/12/27 21:58:09;;;;;;;;;12.25;9.25;;;;;9.14;78.92;101827.78;5056194;28;45479;-66
2022/12/27 22:00:34;;;;;;;;;11.00;10.25;;;;;9.11;79.06;101815.53;5074522;28;45462;-72
2022/12/27 22:03:00;;;;;;;;;9.25;9.25;;;;;9.16;79.17;101819.97;5073325;28;45999;-66
2022/12/27 22:05:27;;;;;;;;;14.00;9.75;;;;;9.15;78.80;101820.81;5074015;28;45646;-68
2022/12/27 22:07:56;;;;;;;;;12.00;11.50;;;;;9.19;78.65;101828.78;5072488;28;45462;-62
2022/12/27 22:10:24;;;;;;;;;10.00;8.00;;;;;9.09;78.79;101798.03;5068583;28;45439;-67
2022/12/27 22:12:50;;;;;;;;;9.75;9.75;;;;;9.21;78.88;101811.41;5067201;28;45616;-66
2022/12/27 22:15:16;;;;;;;;;11.25;9.50;;;;;9.20;78.83;101804.41;5056979;28;45465;-68
2022/12/27 22:17:41;;;;;;;;;11.00;8.25;;;;;9.24;78.86;101811.47;5038048;28;45437;-69
2022/12/27 22:20:08;;;;;;;;;11.00;10.75;;;;;9.19;78.47;101786.97;5064388;28;45443;-65
2022/12/27 22:22:34;;;;;;;;;12.00;8.75;;;;;9.33;78.77;101797.75;5061226;28;45558;-67
2022/12/27 22:25:00;;;;;;;;;13.25;10.75;;;;;9.27;78.62;101774.06;5059471;28;45354;-65
2022/12/27 22:27:25;;;;;;;;;8.00;6.50;;;;;9.39;78.15;101784.81;5057648;28;45423;-69
2022/12/27 22:29:51;;;;;;;;;9.75;9.25;;;;;9.40;78.56;101791.84;5065586;28;45484;-67
2022/12/27 22:32:16;;;;;;;;;14.00;8.75;;;;;9.39;78.51;101773.47;5073902;28;46196;-68
2022/12/27 22:34:42;;;;;;;;;10.25;9.50;;;;;9.36;78.58;101770.81;5071810;28;45482;-67
2022/12/27 22:37:07;;;;;;;;;12.00;11.00;;;;;9.30;78.79;101756.75;5070714;28;45642;-67
2022/12/27 22:39:33;;;;;;;;;14.25;10.75;;;;;9.41;78.52;101771.78;5072067;28;45790;-68
2022/12/27 22:41:58;;;;;;;;;13.75;10.50;;;;;9.37;78.86;101744.66;5072472;28;45464;-66
2022/12/27 22:44:24;;;;;;;;;11.00;8.75;;;;;9.36;79.14;101753.38;5074996;27;45399;-65
2022/12/27 22:46:50;;;;;;;;;15.00;12.75;;;;;9.34;79.21;101755.06;5074290;28;45822;-65
2022/12/27 22:49:15;;;;;;;;;14.00;11.25;;;;;9.34;79.41;101766.41;5073798;28;45656;-64
2022/12/27 22:51:42;;;;;;;;;10.75;10.50;;;;;9.41;79.37;101775.28;5061727;28;46890;-66
2022/12/27 22:54:08;;;;;;;;;8.75;8.75;;;;;9.38;79.08;101750.81;5042405;28;45582;-66
2022/12/27 22:56:38;;;;;;;;;11.75;7.25;;;;;9.42;79.26;101765.69;5067519;28;45474;-66
2022/12/27 22:59:09;;;;;;;;;9.50;7.25;;;;;9.49;79.24;101760.66;5049317;28;45496;-66
2022/12/27 23:01:35;;;;;;;;;13.25;9.00;;;;;9.41;79.28;101743.91;5066789;27;46560;-67
2022/12/27 23:04:02;;;;;;;;;7.75;6.75;;;;;9.51;78.99;101751.09;5073104;28;45451;-66
2022/12/27 23:06:33;;;;;;;;;9.25;7.50;;;;;9.57;78.76;101754.72;5072812;28;45431;-65
2022/12/27 23:08:58;;;;;;;;;9.50;7.75;;;;;9.52;78.91;101741.53;5073122;28;45624;-65
2022/12/27 23:11:28;;;;;;;;;8.25;6.00;;;;;9.50;79.12;101741.50;5072770;28;46838;-66
2022/12/27 23:14:03;;;;;;;;;13.00;6.50;;;;;9.59;78.82;101729.50;5072655;28;45563;-66
2022/12/27 23:16:35;;;;;;;;;9.00;8.50;;;;;9.54;79.12;101732.88;5072539;28;45518;-65
2022/12/27 23:19:01;;;;;;;;;13.50;9.00;;;;;9.46;78.92;101717.84;5072741;27;45405;-66
2022/12/27 23:21:27;;;;;;;;;8.25;8.25;;;;;9.52;79.11;101723.25;5054240;28;47695;-65
2022/12/27 23:23:53;;;;;;;;;7.00;3.00;;;;;9.47;79.68;101717.03;5071661;28;45400;-65
2022/12/27 23:26:21;;;;;;;;;11.00;8.00;;;;;9.40;79.28;101700.31;5074898;27;45467;-67
2022/12/27 23:28:48;;;;;;;;;7.25;7.25;;;;;9.52;78.95;101704.94;5070933;27;45454;-67
2022/12/27 23:31:15;;;;;;;;;8.25;8.25;;;;;9.58;79.14;101710.28;5066790;28;45525;-65
2022/12/27 23:33:42;;;;;;;;;7.50;6.50;;;;;9.60;79.07;101720.78;5066839;27;45797;-65